sensor_id;sensor_type;location;lat;lon;timestamp;pressure;altitude;pressure_sealevel;temperature;humidity
60087;BME280;45960;53.630;55.972;2023-03-26T00:00:19;99908.41;;;5.17;69.27
60087;BME280;45960;53.630;55.972;2023-03-26T00:01:21;99908.19;;;5.22;69.20
60087;BME280;45960;53.630;55.972;2023-03-26T00:02:23;99898.81;;;5.14;69.60
60087;BME280;45960;53.630;55.972;2023-03-26T00:03:24;99910.56;;;5.09;69.77
60087;BME280;45960;53.630;55.972;2023-03-26T00:04:25;99908.94;;;5.06;69.82
60087;BME280;45960;53.630;55.972;2023-03-26T00:05:27;99904.56;;;5.05;69.73
60087;BME280;45960;53.630;55.972;2023-03-26T00:06:29;99908.03;;;5.07;69.91
60087;BME280;45960;53.630;55.972;2023-03-26T00:07:31;99909.72;;;5.08;70.04
60087;BME280;45960;53.630;55.972;2023-03-26T00:08:32;99911.28;;;5.12;69.89
60087;BME280;45960;53.630;55.972;2023-03-26T00:09:34;99911.91;;;5.18;69.60
60087;BME280;45960;53.630;55.972;2023-03-26T00:10:35;99900.41;;;5.19;69.64
60087;BME280;45960;53.630;55.972;2023-03-26T00:11:37;99901.97;;;5.23;69.40
60087;BME280;45960;53.630;55.972;2023-03-26T00:12:38;99910.53;;;5.28;69.32
60087;BME280;45960;53.630;55.972;2023-03-26T00:13:38;99910.31;;;5.32;69.08
60087;BME280;45960;53.630;55.972;2023-03-26T00:14:40;99913.66;;;5.36;69.09
60087;BME280;45960;53.630;55.972;2023-03-26T00:15:41;99918.19;;;5.34;68.79
60087;BME280;45960;53.630;55.972;2023-03-26T00:16:43;99915.84;;;5.28;68.94
60087;BME280;45960;53.630;55.972;2023-03-26T00:17:44;99914.13;;;5.27;69.24
60087;BME280;45960;53.630;55.972;2023-03-26T00:18:48;99911.38;;;5.28;69.09
60087;BME280;45960;53.630;55.972;2023-03-26T00:19:51;99917.38;;;5.32;69.17
60087;BME280;45960;53.630;55.972;2023-03-26T00:20:53;99914.91;;;5.29;69.02
60087;BME280;45960;53.630;55.972;2023-03-26T00:21:53;99917.69;;;5.26;69.06
60087;BME280;45960;53.630;55.972;2023-03-26T00:22:57;99910.00;;;5.21;69.38
60087;BME280;45960;53.630;55.972;2023-03-26T00:24:02;99914.28;;;5.24;69.31
60087;BME280;45960;53.630;55.972;2023-03-26T00:25:06;99917.69;;;5.26;69.36
60087;BME280;45960;53.630;55.972;2023-03-26T00:26:07;99913.56;;;5.20;69.21
60087;BME280;45960;53.630;55.972;2023-03-26T00:27:12;99923.31;;;5.20;69.44
60087;BME280;45960;53.630;55.972;2023-03-26T00:28:14;99922.44;;;5.19;69.52
60087;BME280;45960;53.630;55.972;2023-03-26T00:29:16;99916.28;;;5.19;69.58
60087;BME280;45960;53.630;55.972;2023-03-26T00:30:18;99919.69;;;5.21;69.39
60087;BME280;45960;53.630;55.972;2023-03-26T00:31:19;99921.59;;;5.19;69.58
60087;BME280;45960;53.630;55.972;2023-03-26T00:32:20;99917.06;;;5.21;69.52
60087;BME280;45960;53.630;55.972;2023-03-26T00:33:21;99923.16;;;5.23;69.55
60087;BME280;45960;53.630;55.972;2023-03-26T00:34:23;99923.00;;;5.26;69.23
60087;BME280;45960;53.630;55.972;2023-03-26T00:35:24;99919.59;;;5.24;69.37
60087;BME280;45960;53.630;55.972;2023-03-26T00:36:25;99926.75;;;5.22;69.29
60087;BME280;45960;53.630;55.972;2023-03-26T00:37:26;99926.59;;;5.25;69.23
60087;BME280;45960;53.630;55.972;2023-03-26T00:38:27;99923.16;;;5.23;69.10
60087;BME280;45960;53.630;55.972;2023-03-26T00:39:28;99917.16;;;5.19;69.30
60087;BME280;45960;53.630;55.972;2023-03-26T00:40:29;99920.88;;;5.15;69.21
60087;BME280;45960;53.630;55.972;2023-03-26T00:41:31;99920.31;;;5.08;69.22
60087;BME280;45960;53.630;55.972;2023-03-26T00:42:36;99923.03;;;5.07;69.50
60087;BME280;45960;53.630;55.972;2023-03-26T00:43:37;99924.06;;;5.04;69.48
60087;BME280;45960;53.630;55.972;2023-03-26T00:44:38;99917.03;;;5.03;69.41
60087;BME280;45960;53.630;55.972;2023-03-26T00:45:39;99919.53;;;5.06;69.43
60087;BME280;45960;53.630;55.972;2023-03-26T00:46:41;99916.13;;;5.04;69.28
60087;BME280;45960;53.630;55.972;2023-03-26T00:47:42;99922.16;;;5.06;69.38
60087;BME280;45960;53.630;55.972;2023-03-26T00:48:43;99917.19;;;5.00;69.25
60087;BME280;45960;53.630;55.972;2023-03-26T00:49:44;99913.88;;;4.95;69.58
60087;BME280;45960;53.630;55.972;2023-03-26T00:50:46;99915.63;;;4.96;69.60
60087;BME280;45960;53.630;55.972;2023-03-26T00:51:47;99911.88;;;5.00;69.54
60087;BME280;45960;53.630;55.972;2023-03-26T00:52:48;99921.47;;;5.03;69.27
60087;BME280;45960;53.630;55.972;2023-03-26T00:53:49;99922.16;;;5.06;69.14
60087;BME280;45960;53.630;55.972;2023-03-26T00:54:50;99920.16;;;5.11;69.09
60087;BME280;45960;53.630;55.972;2023-03-26T00:55:51;99919.38;;;5.09;69.02
60087;BME280;45960;53.630;55.972;2023-03-26T00:56:52;99918.59;;;5.07;68.98
60087;BME280;45960;53.630;55.972;2023-03-26T00:57:55;99920.69;;;5.01;69.14
60087;BME280;45960;53.630;55.972;2023-03-26T00:58:56;99919.28;;;4.93;69.15
60087;BME280;45960;53.630;55.972;2023-03-26T00:59:59;99913.19;;;4.91;69.17
60087;BME280;45960;53.630;55.972;2023-03-26T01:01:16;99912.31;;;4.91;69.33
60087;BME280;45960;53.630;55.972;2023-03-26T01:02:18;99909.59;;;4.92;69.32
60087;BME280;45960;53.630;55.972;2023-03-26T01:03:20;99914.63;;;4.99;69.27
60087;BME280;45960;53.630;55.972;2023-03-26T01:04:23;99920.63;;;5.02;69.09
60087;BME280;45960;53.630;55.972;2023-03-26T01:06:36;99918.75;;;5.04;68.72
60087;BME280;45960;53.630;55.972;2023-03-26T01:07:38;99918.88;;;5.01;68.74
60087;BME280;45960;53.630;55.972;2023-03-26T01:08:40;99918.88;;;5.01;68.76
60087;BME280;45960;53.630;55.972;2023-03-26T01:09:42;99925.75;;;5.05;68.79
60087;BME280;45960;53.630;55.972;2023-03-26T01:10:45;99922.00;;;5.09;68.70
60087;BME280;45960;53.630;55.972;2023-03-26T01:11:50;99924.59;;;5.11;68.62
60087;BME280;45960;53.630;55.972;2023-03-26T01:12:51;99925.47;;;5.11;68.62
60087;BME280;45960;53.630;55.972;2023-03-26T01:13:56;99933.50;;;5.10;68.39
60087;BME280;45960;53.630;55.972;2023-03-26T01:14:58;99925.66;;;5.07;68.45
60087;BME280;45960;53.630;55.972;2023-03-26T01:16:00;99929.19;;;5.07;68.43
60087;BME280;45960;53.630;55.972;2023-03-26T01:17:02;99930.06;;;5.08;68.66
60087;BME280;45960;53.630;55.972;2023-03-26T01:18:04;99929.06;;;5.10;68.41
60087;BME280;45960;53.630;55.972;2023-03-26T01:20:21;99920.00;;;5.14;68.20
60087;BME280;45960;53.630;55.972;2023-03-26T01:21:26;99916.56;;;5.12;68.30
60087;BME280;45960;53.630;55.972;2023-03-26T01:22:29;99932.47;;;5.12;68.08
60087;BME280;45960;53.630;55.972;2023-03-26T01:23:38;99932.59;;;5.09;68.17
60087;BME280;45960;53.630;55.972;2023-03-26T01:24:41;99926.06;;;4.99;68.61
60087;BME280;45960;53.630;55.972;2023-03-26T01:25:43;99925.22;;;4.99;68.67
60087;BME280;45960;53.630;55.972;2023-03-26T01:26:49;99928.72;;;4.99;68.77
60087;BME280;45960;53.630;55.972;2023-03-26T01:27:53;99927.91;;;4.97;68.75
60087;BME280;45960;53.630;55.972;2023-03-26T01:28:55;99921.75;;;4.97;68.85
60087;BME280;45960;53.630;55.972;2023-03-26T01:31:04;99927.06;;;4.97;68.84
60087;BME280;45960;53.630;55.972;2023-03-26T01:32:17;99916.84;;;4.89;68.79
60087;BME280;45960;53.630;55.972;2023-03-26T01:33:31;99921.97;;;4.92;68.98
60087;BME280;45960;53.630;55.972;2023-03-26T01:35:11;99923.78;;;4.91;68.82
60087;BME280;45960;53.630;55.972;2023-03-26T01:38:38;99922.06;;;4.90;69.10
60087;BME280;45960;53.630;55.972;2023-03-26T01:40:03;99927.38;;;4.90;69.18
60087;BME280;45960;53.630;55.972;2023-03-26T01:41:10;99929.63;;;4.98;68.94
60087;BME280;45960;53.630;55.972;2023-03-26T01:42:14;99927.75;;;5.00;68.69
60087;BME280;45960;53.630;55.972;2023-03-26T01:43:31;99922.31;;;5.03;68.62
60087;BME280;45960;53.630;55.972;2023-03-26T01:45:46;99920.47;;;5.05;68.45
60087;BME280;45960;53.630;55.972;2023-03-26T01:46:48;99924.06;;;5.04;68.36
60087;BME280;45960;53.630;55.972;2023-03-26T01:47:49;99922.31;;;5.03;68.38
60087;BME280;45960;53.630;55.972;2023-03-26T01:48:50;99926.75;;;5.03;68.33
60087;BME280;45960;53.630;55.972;2023-03-26T01:49:51;99920.75;;;4.99;68.41
60087;BME280;45960;53.630;55.972;2023-03-26T01:50:52;99927.91;;;4.97;68.62
60087;BME280;45960;53.630;55.972;2023-03-26T01:51:55;99929.63;;;4.98;68.57
60087;BME280;45960;53.630;55.972;2023-03-26T01:52:57;99930.63;;;4.96;68.46
60087;BME280;45960;53.630;55.972;2023-03-26T01:53:58;99920.91;;;4.96;68.65
60087;BME280;45960;53.630;55.972;2023-03-26T01:55:00;99920.81;;;4.98;68.69
60087;BME280;45960;53.630;55.972;2023-03-26T02:00:29;99927.06;;;4.78;68.95
60087;BME280;45960;53.630;55.972;2023-03-26T02:01:35;99929.72;;;4.78;69.15
60087;BME280;45960;53.630;55.972;2023-03-26T02:03:52;99929.56;;;4.81;69.14
60087;BME280;45960;53.630;55.972;2023-03-26T02:06:07;99924.22;;;4.82;69.20
60087;BME280;45960;53.630;55.972;2023-03-26T02:07:16;99925.91;;;4.83;69.08
60087;BME280;45960;53.630;55.972;2023-03-26T02:09:36;99923.91;;;4.69;69.61
60087;BME280;45960;53.630;55.972;2023-03-26T02:10:43;99931.22;;;4.64;69.70
60087;BME280;45960;53.630;55.972;2023-03-26T02:11:45;99926.78;;;4.65;69.66
60087;BME280;45960;53.630;55.972;2023-03-26T02:12:46;99931.06;;;4.67;69.67
60087;BME280;45960;53.630;55.972;2023-03-26T02:13:47;99925.91;;;4.64;69.92
60087;BME280;45960;53.630;55.972;2023-03-26T02:14:48;99921.41;;;4.66;69.90
60087;BME280;45960;53.630;55.972;2023-03-26T02:16:11;99924.88;;;4.68;69.96
60087;BME280;45960;53.630;55.972;2023-03-26T02:17:15;99926.41;;;4.72;69.60
60087;BME280;45960;53.630;55.972;2023-03-26T02:18:18;99927.91;;;4.78;69.68
60087;BME280;45960;53.630;55.972;2023-03-26T02:19:23;99939.25;;;4.82;69.54
60087;BME280;45960;53.630;55.972;2023-03-26T02:20:24;99927.22;;;4.75;69.51
60087;BME280;45960;53.630;55.972;2023-03-26T02:21:29;99923.72;;;4.74;69.97
60087;BME280;45960;53.630;55.972;2023-03-26T02:22:33;99916.78;;;4.71;69.91
60087;BME280;45960;53.630;55.972;2023-03-26T02:23:41;99922.06;;;4.71;69.79
60087;BME280;45960;53.630;55.972;2023-03-26T02:24:46;99921.91;;;4.75;69.78
60087;BME280;45960;53.630;55.972;2023-03-26T02:25:47;99920.38;;;4.70;69.83
60087;BME280;45960;53.630;55.972;2023-03-26T02:26:48;99915.97;;;4.69;70.15
60087;BME280;45960;53.630;55.972;2023-03-26T02:27:49;99916.94;;;4.68;70.00
60087;BME280;45960;53.630;55.972;2023-03-26T02:28:51;99915.97;;;4.69;70.05
60087;BME280;45960;53.630;55.972;2023-03-26T02:29:52;99912.47;;;4.69;70.10
60087;BME280;45960;53.630;55.972;2023-03-26T02:30:55;99922.91;;;4.72;69.90
60087;BME280;45960;53.630;55.972;2023-03-26T02:31:57;99920.94;;;4.77;70.11
60087;BME280;45960;53.630;55.972;2023-03-26T02:32:58;99927.88;;;4.80;70.05
60087;BME280;45960;53.630;55.972;2023-03-26T02:34:02;99918.06;;;4.82;69.76
60087;BME280;45960;53.630;55.972;2023-03-26T02:35:06;99923.38;;;4.82;69.92
60087;BME280;45960;53.630;55.972;2023-03-26T02:36:07;99921.47;;;4.84;69.84
60087;BME280;45960;53.630;55.972;2023-03-26T02:37:12;99911.03;;;4.81;69.82
60087;BME280;45960;53.630;55.972;2023-03-26T02:38:15;99911.03;;;4.81;69.77
60087;BME280;45960;53.630;55.972;2023-03-26T02:39:16;99914.47;;;4.83;70.02
60087;BME280;45960;53.630;55.972;2023-03-26T02:40:25;99919.84;;;4.81;69.90
60087;BME280;45960;53.630;55.972;2023-03-26T02:41:26;99917.13;;;4.83;70.05
60087;BME280;45960;53.630;55.972;2023-03-26T02:42:40;99926.78;;;4.84;70.03
60087;BME280;45960;53.630;55.972;2023-03-26T02:43:41;99924.06;;;4.85;70.01
60087;BME280;45960;53.630;55.972;2023-03-26T02:44:45;99930.06;;;4.89;69.87
60087;BME280;45960;53.630;55.972;2023-03-26T02:46:06;99927.28;;;4.92;70.04
60087;BME280;45960;53.630;55.972;2023-03-26T02:47:25;99923.47;;;4.98;70.00
60087;BME280;45960;53.630;55.972;2023-03-26T02:48:26;99914.47;;;5.02;69.57
60087;BME280;45960;53.630;55.972;2023-03-26T02:49:41;99927.47;;;5.06;69.67
60087;BME280;45960;53.630;55.972;2023-03-26T02:50:43;99915.88;;;5.09;69.52
60087;BME280;45960;53.630;55.972;2023-03-26T02:52:05;99916.56;;;5.12;69.51
60087;BME280;45960;53.630;55.972;2023-03-26T02:53:07;99928.75;;;5.16;69.42
60087;BME280;45960;53.630;55.972;2023-03-26T02:54:11;99919.84;;;5.18;69.37
60087;BME280;45960;53.630;55.972;2023-03-26T02:55:38;99925.16;;;5.18;69.30
60087;BME280;45960;53.630;55.972;2023-03-26T02:56:40;99929.53;;;5.19;69.38
60087;BME280;45960;53.630;55.972;2023-03-26T02:57:59;99919.84;;;5.18;69.18
60087;BME280;45960;53.630;55.972;2023-03-26T02:59:07;99923.44;;;5.16;69.33
60087;BME280;45960;53.630;55.972;2023-03-26T03:00:08;99926.16;;;5.15;69.70
60087;BME280;45960;53.630;55.972;2023-03-26T03:01:19;99924.47;;;5.14;69.60
60087;BME280;45960;53.630;55.972;2023-03-26T03:02:26;99925.31;;;5.14;69.64
60087;BME280;45960;53.630;55.972;2023-03-26T03:03:31;99920.72;;;5.18;69.76
60087;BME280;45960;53.630;55.972;2023-03-26T03:04:33;99923.31;;;5.20;69.70
60087;BME280;45960;53.630;55.972;2023-03-26T03:05:34;99920.59;;;5.21;69.71
60087;BME280;45960;53.630;55.972;2023-03-26T03:06:57;99928.38;;;5.24;69.67
60087;BME280;45960;53.630;55.972;2023-03-26T03:07:59;99929.09;;;5.28;69.45
60087;BME280;45960;53.630;55.972;2023-03-26T03:09:05;99921.13;;;5.28;69.47
60087;BME280;45960;53.630;55.972;2023-03-26T03:10:08;99922.84;;;5.29;69.52
60087;BME280;45960;53.630;55.972;2023-03-26T03:11:28;99917.53;;;5.29;69.45
60087;BME280;45960;53.630;55.972;2023-03-26T03:12:29;99922.84;;;5.29;69.45
60087;BME280;45960;53.630;55.972;2023-03-26T03:13:29;99927.97;;;5.32;69.43
60087;BME280;45960;53.630;55.972;2023-03-26T03:14:30;99932.13;;;5.37;69.41
60087;BME280;45960;53.630;55.972;2023-03-26T03:15:31;99923.97;;;5.42;69.44
60087;BME280;45960;53.630;55.972;2023-03-26T03:16:32;99928.25;;;5.45;69.21
60087;BME280;45960;53.630;55.972;2023-03-26T03:17:38;99933.50;;;5.46;69.31
60087;BME280;45960;53.630;55.972;2023-03-26T03:18:40;99928.09;;;5.48;69.22
60087;BME280;45960;53.630;55.972;2023-03-26T03:19:41;99923.50;;;5.51;69.21
60087;BME280;45960;53.630;55.972;2023-03-26T03:20:42;99925.06;;;5.55;68.90
60087;BME280;45960;53.630;55.972;2023-03-26T03:21:44;99916.00;;;5.59;69.02
60087;BME280;45960;53.630;55.972;2023-03-26T03:22:45;99917.59;;;5.64;68.83
60087;BME280;45960;53.630;55.972;2023-03-26T03:23:46;99917.44;;;5.67;68.74
60087;BME280;45960;53.630;55.972;2023-03-26T03:24:47;99910.28;;;5.69;68.66
60087;BME280;45960;53.630;55.972;2023-03-26T03:25:48;99906.50;;;5.73;68.60
60087;BME280;45960;53.630;55.972;2023-03-26T03:26:51;99910.81;;;5.75;68.39
60087;BME280;45960;53.630;55.972;2023-03-26T03:28:06;99921.09;;;5.81;68.27
60087;BME280;45960;53.630;55.972;2023-03-26T03:29:07;99916.63;;;5.82;68.26
60087;BME280;45960;53.630;55.972;2023-03-26T03:30:10;99920.22;;;5.81;68.31
60087;BME280;45960;53.630;55.972;2023-03-26T03:31:31;99917.13;;;5.73;68.45
60087;BME280;45960;53.630;55.972;2023-03-26T03:32:37;99931.16;;;5.75;68.64
60087;BME280;45960;53.630;55.972;2023-03-26T03:33:38;99910.69;;;5.77;68.68
60087;BME280;45960;53.630;55.972;2023-03-26T03:34:42;99914.59;;;5.87;68.59
60087;BME280;45960;53.630;55.972;2023-03-26T03:35:43;99910.88;;;5.91;68.27
60087;BME280;45960;53.630;55.972;2023-03-26T03:36:45;99916.75;;;5.98;68.06
60087;BME280;45960;53.630;55.972;2023-03-26T03:38:05;99914.53;;;6.06;67.86
60087;BME280;45960;53.630;55.972;2023-03-26T03:39:16;99921.38;;;6.10;67.80
60087;BME280;45960;53.630;55.972;2023-03-26T03:40:17;99922.41;;;6.08;67.74
60087;BME280;45960;53.630;55.972;2023-03-26T03:41:19;99921.97;;;5.99;67.84
60087;BME280;45960;53.630;55.972;2023-03-26T03:42:21;99918.59;;;5.96;67.96
60087;BME280;45960;53.630;55.972;2023-03-26T03:43:24;99921.47;;;5.91;67.98
60087;BME280;45960;53.630;55.972;2023-03-26T03:44:36;99914.78;;;5.84;68.53
60087;BME280;45960;53.630;55.972;2023-03-26T03:45:41;99921.25;;;5.78;68.57
60087;BME280;45960;53.630;55.972;2023-03-26T03:47:02;99914.78;;;5.84;68.71
60087;BME280;45960;53.630;55.972;2023-03-26T03:48:04;99912.53;;;5.94;68.77
60087;BME280;45960;53.630;55.972;2023-03-26T03:49:12;99913.69;;;6.05;68.44
60087;BME280;45960;53.630;55.972;2023-03-26T03:50:13;99904.47;;;6.13;68.08
60087;BME280;45960;53.630;55.972;2023-03-26T03:51:24;99903.66;;;6.28;67.78
60087;BME280;45960;53.630;55.972;2023-03-26T03:52:29;99909.25;;;6.39;67.73
60087;BME280;45960;53.630;55.972;2023-03-26T03:53:30;99909.53;;;6.50;67.38
60087;BME280;45960;53.630;55.972;2023-03-26T03:54:33;99923.41;;;6.56;67.13
60087;BME280;45960;53.630;55.972;2023-03-26T03:55:53;99916.81;;;6.63;66.85
60087;BME280;45960;53.630;55.972;2023-03-26T03:56:57;99914.16;;;6.63;66.82
60087;BME280;45960;53.630;55.972;2023-03-26T03:58:10;99909.53;;;6.66;66.89
60087;BME280;45960;53.630;55.972;2023-03-26T03:59:11;99916.28;;;6.72;66.57
60087;BME280;45960;53.630;55.972;2023-03-26T04:00:12;99908.19;;;6.75;66.40
60087;BME280;45960;53.630;55.972;2023-03-26T04:01:16;99908.19;;;6.75;66.23
60087;BME280;45960;53.630;55.972;2023-03-26T04:02:31;99908.50;;;6.69;66.18
60087;BME280;45960;53.630;55.972;2023-03-26T04:03:36;99901.50;;;6.68;66.40
60087;BME280;45960;53.630;55.972;2023-03-26T04:04:43;99907.66;;;6.68;66.59
60087;BME280;45960;53.630;55.972;2023-03-26T04:05:48;99903.53;;;6.63;66.32
60087;BME280;45960;53.630;55.972;2023-03-26T04:06:50;99902.34;;;6.53;66.47
60087;BME280;45960;53.630;55.972;2023-03-26T04:07:51;99903.66;;;6.44;66.86
60087;BME280;45960;53.630;55.972;2023-03-26T04:09:18;99913.00;;;6.35;67.12
60087;BME280;45960;53.630;55.972;2023-03-26T04:10:21;99910.34;;;6.35;67.23
60087;BME280;45960;53.630;55.972;2023-03-26T04:11:40;99919.06;;;6.37;67.35
60087;BME280;45960;53.630;55.972;2023-03-26T04:13:00;99914.63;;;6.38;67.29
60087;BME280;45960;53.630;55.972;2023-03-26T04:14:30;99901.28;;;6.39;67.20
60087;BME280;45960;53.630;55.972;2023-03-26T04:15:34;99893.00;;;6.45;67.35
60087;BME280;45960;53.630;55.972;2023-03-26T04:16:36;99895.47;;;6.48;66.95
60087;BME280;45960;53.630;55.972;2023-03-26T04:17:37;99896.25;;;6.50;66.97
60087;BME280;45960;53.630;55.972;2023-03-26T04:18:43;99897.53;;;6.59;66.71
60087;BME280;45960;53.630;55.972;2023-03-26T04:19:48;99900.72;;;6.66;66.73
60087;BME280;45960;53.630;55.972;2023-03-26T04:20:52;99888.03;;;6.71;66.47
60087;BME280;45960;53.630;55.972;2023-03-26T04:22:04;99894.81;;;6.77;66.44
60087;BME280;45960;53.630;55.972;2023-03-26T04:23:11;99888.41;;;6.81;66.17
60087;BME280;45960;53.630;55.972;2023-03-26T04:24:14;99902.88;;;6.75;65.93
60087;BME280;45960;53.630;55.972;2023-03-26T04:25:35;99898.41;;;6.60;66.19
60087;BME280;45960;53.630;55.972;2023-03-26T04:26:51;99899.41;;;6.57;66.48
60087;BME280;45960;53.630;55.972;2023-03-26T04:27:59;99903.72;;;6.60;66.65
60087;BME280;45960;53.630;55.972;2023-03-26T04:29:21;99898.75;;;6.54;66.61
60087;BME280;45960;53.630;55.972;2023-03-26T04:30:25;99905.06;;;6.51;66.64
60087;BME280;45960;53.630;55.972;2023-03-26T04:31:45;99911.22;;;6.52;66.74
60087;BME280;45960;53.630;55.972;2023-03-26T04:32:48;99913.09;;;6.49;66.91
60087;BME280;45960;53.630;55.972;2023-03-26T04:33:50;99908.13;;;6.43;66.87
60087;BME280;45960;53.630;55.972;2023-03-26T04:34:55;99906.25;;;6.45;67.01
60087;BME280;45960;53.630;55.972;2023-03-26T04:36:00;99908.75;;;6.48;67.12
60087;BME280;45960;53.630;55.972;2023-03-26T04:37:04;99910.13;;;6.56;66.99
60087;BME280;45960;53.630;55.972;2023-03-26T04:38:11;99914.16;;;6.63;66.89
60087;BME280;45960;53.630;55.972;2023-03-26T04:39:15;99904.22;;;6.66;66.66
60087;BME280;45960;53.630;55.972;2023-03-26T04:40:37;99903.00;;;6.72;66.60
60087;BME280;45960;53.630;55.972;2023-03-26T04:41:58;99896.34;;;6.65;66.42
60087;BME280;45960;53.630;55.972;2023-03-26T04:43:07;99900.09;;;6.61;66.45
60087;BME280;45960;53.630;55.972;2023-03-26T04:44:46;99902.34;;;6.53;66.77
60087;BME280;45960;53.630;55.972;2023-03-26T04:45:51;99899.25;;;6.44;66.73
60087;BME280;45960;53.630;55.972;2023-03-26T04:46:54;99907.97;;;6.46;67.10
60087;BME280;45960;53.630;55.972;2023-03-26T04:48:15;99902.47;;;6.49;67.12
60087;BME280;45960;53.630;55.972;2023-03-26T04:49:16;99904.22;;;6.50;66.91
60087;BME280;45960;53.630;55.972;2023-03-26T04:50:17;99911.06;;;6.55;67.04
60087;BME280;45960;53.630;55.972;2023-03-26T04:51:18;99908.22;;;6.58;66.88
60087;BME280;45960;53.630;55.972;2023-03-26T04:52:22;99906.69;;;6.54;66.75
60087;BME280;45960;53.630;55.972;2023-03-26T04:53:55;99907.88;;;6.48;67.05
60087;BME280;45960;53.630;55.972;2023-03-26T04:55:02;99909.69;;;6.47;67.00
60087;BME280;45960;53.630;55.972;2023-03-26T04:56:19;99910.38;;;6.51;67.18
60087;BME280;45960;53.630;55.972;2023-03-26T04:57:55;99907.47;;;6.56;66.93
60087;BME280;45960;53.630;55.972;2023-03-26T04:59:18;99906.47;;;6.58;66.93
60087;BME280;45960;53.630;55.972;2023-03-26T05:00:19;99907.13;;;6.62;66.84
60087;BME280;45960;53.630;55.972;2023-03-26T05:01:26;99896.19;;;6.68;66.79
60087;BME280;45960;53.630;55.972;2023-03-26T05:02:27;99895.22;;;6.69;66.66
60087;BME280;45960;53.630;55.972;2023-03-26T05:03:29;99899.63;;;6.70;66.84
60087;BME280;45960;53.630;55.972;2023-03-26T05:04:31;99899.97;;;6.64;66.61
60087;BME280;45960;53.630;55.972;2023-03-26T05:05:40;99904.38;;;6.63;66.73
60087;BME280;45960;53.630;55.972;2023-03-26T05:06:41;99911.25;;;6.67;66.94
60087;BME280;45960;53.630;55.972;2023-03-26T05:07:55;99905.25;;;6.64;67.01
60087;BME280;45960;53.630;55.972;2023-03-26T05:08:57;99909.44;;;6.68;66.96
60087;BME280;45960;53.630;55.972;2023-03-26T05:10:21;99898.59;;;6.72;67.00
60087;BME280;45960;53.630;55.972;2023-03-26T05:11:37;99908.19;;;6.75;66.86
60087;BME280;45960;53.630;55.972;2023-03-26T05:12:39;99903.72;;;6.76;66.64
60087;BME280;45960;53.630;55.972;2023-03-26T05:13:47;99902.88;;;6.75;66.81
60087;BME280;45960;53.630;55.972;2023-03-26T05:14:48;99895.66;;;6.77;66.63
60087;BME280;45960;53.630;55.972;2023-03-26T05:15:54;99905.94;;;6.83;66.49
60087;BME280;45960;53.630;55.972;2023-03-26T05:17:09;99895.00;;;6.89;66.31
60087;BME280;45960;53.630;55.972;2023-03-26T05:18:14;99892.91;;;6.94;66.30
60087;BME280;45960;53.630;55.972;2023-03-26T05:19:20;99911.25;;;6.99;66.19
60087;BME280;45960;53.630;55.972;2023-03-26T05:20:23;99904.91;;;7.02;66.05
60087;BME280;45960;53.630;55.972;2023-03-26T05:21:26;99899.59;;;7.02;66.07
60087;BME280;45960;53.630;55.972;2023-03-26T05:22:27;99905.69;;;7.04;65.99
60087;BME280;45960;53.630;55.972;2023-03-26T05:23:43;99896.00;;;7.03;65.99
60087;BME280;45960;53.630;55.972;2023-03-26T05:24:51;99900.97;;;7.09;66.01
60087;BME280;45960;53.630;55.972;2023-03-26T05:25:52;99902.50;;;7.13;65.81
60087;BME280;45960;53.630;55.972;2023-03-26T05:26:56;99906.97;;;7.12;65.80
60087;BME280;45960;53.630;55.972;2023-03-26T05:27:58;99901.66;;;7.12;65.70
60087;BME280;45960;53.630;55.972;2023-03-26T05:29:04;99893.84;;;7.09;65.72
60087;BME280;45960;53.630;55.972;2023-03-26T05:30:18;99897.06;;;7.00;65.99
60087;BME280;45960;53.630;55.972;2023-03-26T05:31:23;99880.16;;;7.01;66.08
60087;BME280;45960;53.630;55.972;2023-03-26T05:32:29;99894.28;;;7.02;65.93
60087;BME280;45960;53.630;55.972;2023-03-26T05:33:30;99886.06;;;7.06;66.04
60087;BME280;45960;53.630;55.972;2023-03-26T05:34:37;99888.44;;;7.11;65.89
60087;BME280;45960;53.630;55.972;2023-03-26T05:35:38;99885.72;;;7.12;65.68
60087;BME280;45960;53.630;55.972;2023-03-26T05:36:42;99886.91;;;7.07;65.62
60087;BME280;45960;53.630;55.972;2023-03-26T05:38:02;99891.44;;;7.05;65.87
60087;BME280;45960;53.630;55.972;2023-03-26T05:39:03;99900.09;;;7.08;65.88
60087;BME280;45960;53.630;55.972;2023-03-26T05:40:22;99893.94;;;7.08;65.82
60087;BME280;45960;53.630;55.972;2023-03-26T05:41:30;99905.69;;;7.04;65.92
60087;BME280;45960;53.630;55.972;2023-03-26T05:42:31;99894.88;;;7.07;66.10
60087;BME280;45960;53.630;55.972;2023-03-26T05:43:47;99903.47;;;7.12;65.63
60087;BME280;45960;53.630;55.972;2023-03-26T05:44:56;99893.94;;;7.08;65.88
60087;BME280;45960;53.630;55.972;2023-03-26T05:46:01;99895.84;;;7.06;65.89
60087;BME280;45960;53.630;55.972;2023-03-26T05:47:05;99901.31;;;7.03;65.72
60087;BME280;45960;53.630;55.972;2023-03-26T05:48:06;99895.66;;;7.09;65.77
60087;BME280;45960;53.630;55.972;2023-03-26T05:49:07;99893.75;;;7.11;65.63
60087;BME280;45960;53.630;55.972;2023-03-26T05:50:09;99896.50;;;7.09;65.97
60087;BME280;45960;53.630;55.972;2023-03-26T05:51:14;99886.75;;;7.10;65.75
60087;BME280;45960;53.630;55.972;2023-03-26T05:52:21;99886.38;;;7.16;65.53
60087;BME280;45960;53.630;55.972;2023-03-26T05:53:40;99895.81;;;7.22;65.36
60087;BME280;45960;53.630;55.972;2023-03-26T05:54:47;99905.59;;;7.21;65.32
60087;BME280;45960;53.630;55.972;2023-03-26T05:56:06;99901.97;;;7.22;65.21
60087;BME280;45960;53.630;55.972;2023-03-26T05:57:27;99907.63;;;7.32;65.18
60087;BME280;45960;53.630;55.972;2023-03-26T05:58:57;99900.44;;;7.34;64.96
60087;BME280;45960;53.630;55.972;2023-03-26T06:00:24;99904.69;;;7.36;65.01
60087;BME280;45960;53.630;55.972;2023-03-26T06:01:27;99910.53;;;7.43;64.92
60087;BME280;45960;53.630;55.972;2023-03-26T06:02:51;99902.97;;;7.51;64.70
60087;BME280;45960;53.630;55.972;2023-03-26T06:04:13;99899.66;;;7.62;64.57
60087;BME280;45960;53.630;55.972;2023-03-26T06:05:23;99906.13;;;7.72;64.19